Aeroporto :
LOGIN :

Iscrizione | Disclaimer

   EN    FR    IT 

 










Sommario :    VFR   VFR Marginale   IFR   IFR Intensivo   IFR Molto Intensivo
Visibilità : 
Base nubi : 
>= 8 km
>= 3000ft
5 / 8 km
1000 / 3000 ft
1500m / 5 km
500 / 1000 ft
800 / 1500m
200 / 500 ft
< 800m
< 200 ft
Simboli :   Temporali  Nebbia  Neve Forte  Precipitazioni Forti  Vento > 20 kt
SIGMETs :   Varie  Temporali  Ghiacco  Turbolenza  Onda orograficha  Ceneri Vulcaniche






- Altitudine del aeroporto : 250 ft
- Codice IATA : AGA


GMAD - Al Massira Int.

ULTIMO METAR :
  • 041830Z 27015KT CAVOK 20/13 Q1012 NOSIG

METARs OBSOLETI :
  • 041800Z 26013KT CAVOK 20/13 Q1012 NOSIG
  • 041730Z 26016KT CAVOK 21/13 Q1011 NOSIG
  • 041700Z 25015KT CAVOK 22/11 Q1011 NOSIG
  • 041630Z 25017KT CAVOK 21/12 Q1011 NOSIG
  • 041600Z 27018KT CAVOK 22/11 Q1011 NOSIG

TAF TAF GMAD
Valido dal 04 a 18 ore il 06 a 00 ore UTC


041700Z 0418/0524 25017KT CAVOK
BECMG 0421/0423 10004KT



MetMap, La meteo Aeronautica in un colpo d'occhio ! - Copyright ORBIFLY Dicembre 2007 - Disclaimer

ORBIFLY MET'MAP TEAM :

Programmazione e sviluppo : Alexandra Zaïnal
Concezione : Baudouin d'Aumeries
Aiuto per la programmazione : Marc-Olivier Méhu
Supporto tecnico e logistico : Manuel Goepfert
Aiuto per la traduzione : Arnaldo La Scala

Contatto : metmap@orbifly.com




FONTI E CREDITI :

   NOAA